sensor_id;sensor_type;location;lat;lon;timestamp;pressure;altitude;pressure_sealevel;temperature;humidity
72055;BME280;59936;51.490;5.436;2024-02-26T00:01:23;99670.66;;;5.54;81.32
72055;BME280;59936;51.490;5.436;2024-02-26T00:03:49;99668.97;;;5.53;81.92
72055;BME280;59936;51.490;5.436;2024-02-26T00:06:16;99668.97;;;5.53;82.12
72055;BME280;59936;51.490;5.436;2024-02-26T00:08:43;99673.97;;;5.48;82.14
72055;BME280;59936;51.490;5.436;2024-02-26T00:11:11;99668.63;;;5.48;82.70
72055;BME280;59936;51.490;5.436;2024-02-26T00:13:38;99674.28;;;5.45;83.69
72055;BME280;59936;51.490;5.436;2024-02-26T00:16:04;99672.97;;;5.41;82.88
72055;BME280;59936;51.490;5.436;2024-02-26T00:18:31;99677.78;;;5.37;83.41
72055;BME280;59936;51.490;5.436;2024-02-26T00:20:59;99676.44;;;5.33;83.28
72055;BME280;59936;51.490;5.436;2024-02-26T00:23:26;99673.94;;;5.32;84.17
72055;BME280;59936;51.490;5.436;2024-02-26T00:25:53;99668.94;;;5.29;84.12
72055;BME280;59936;51.490;5.436;2024-02-26T00:28:20;99670.94;;;5.27;84.13
72055;BME280;59936;51.490;5.436;2024-02-26T00:30:47;99671.25;;;5.24;83.68
72055;BME280;59936;51.490;5.436;2024-02-26T00:33:16;99670.09;;;5.26;83.77
72055;BME280;59936;51.490;5.436;2024-02-26T00:35:43;99671.91;;;5.26;83.62
72055;BME280;59936;51.490;5.436;2024-02-26T00:38:10;99664.94;;;5.25;84.10
72055;BME280;59936;51.490;5.436;2024-02-26T00:40:37;99670.72;;;5.20;84.27
72055;BME280;59936;51.490;5.436;2024-02-26T00:43:03;99670.94;;;5.19;84.43
72055;BME280;59936;51.490;5.436;2024-02-26T00:45:30;99661.28;;;5.18;84.87
72055;BME280;59936;51.490;5.436;2024-02-26T00:47:58;99650.66;;;5.18;86.22
72055;BME280;59936;51.490;5.436;2024-02-26T00:50:25;99650.31;;;5.12;85.97
72055;BME280;59936;51.490;5.436;2024-02-26T00:52:52;99647.81;;;5.11;85.94
72055;BME280;59936;51.490;5.436;2024-02-26T00:55:19;99643.34;;;5.11;86.27
72055;BME280;59936;51.490;5.436;2024-02-26T00:57:45;99646.47;;;5.07;86.65
72055;BME280;59936;51.490;5.436;2024-02-26T01:00:13;99640.63;;;5.03;87.02
72055;BME280;59936;51.490;5.436;2024-02-26T01:02:40;99648.94;;;5.00;87.17
72055;BME280;59936;51.490;5.436;2024-02-26T01:07:42;99654.75;;;5.04;87.42
72055;BME280;59936;51.490;5.436;2024-02-26T01:10:10;99652.41;;;5.01;86.95
72055;BME280;59936;51.490;5.436;2024-02-26T01:12:37;99651.75;;;4.99;87.01
72055;BME280;59936;51.490;5.436;2024-02-26T01:15:04;99666.69;;;5.00;87.39
72055;BME280;59936;51.490;5.436;2024-02-26T01:17:31;99663.41;;;4.98;87.74
72055;BME280;59936;51.490;5.436;2024-02-26T01:19:58;99667.19;;;4.95;88.37
72055;BME280;59936;51.490;5.436;2024-02-26T01:22:25;99672.84;;;4.92;88.34
72055;BME280;59936;51.490;5.436;2024-02-26T01:24:51;99666.84;;;4.90;89.17
72055;BME280;59936;51.490;5.436;2024-02-26T01:27:18;99663.19;;;4.91;89.39
72055;BME280;59936;51.490;5.436;2024-02-26T01:29:45;99684.44;;;4.91;89.75
72055;BME280;59936;51.490;5.436;2024-02-26T01:32:12;99678.31;;;4.91;89.61
72055;BME280;59936;51.490;5.436;2024-02-26T01:34:39;99676.78;;;4.88;90.10
72055;BME280;59936;51.490;5.436;2024-02-26T01:37:06;99685.91;;;4.86;91.27
72055;BME280;59936;51.490;5.436;2024-02-26T01:39:33;99682.72;;;4.82;91.10
72055;BME280;59936;51.490;5.436;2024-02-26T01:41:59;99679.72;;;4.77;91.80
72055;BME280;59936;51.490;5.436;2024-02-26T01:44:27;99692.50;;;4.73;92.75
72055;BME280;59936;51.490;5.436;2024-02-26T01:46:54;99683.03;;;4.71;92.84
72055;BME280;59936;51.490;5.436;2024-02-26T01:49:21;99686.00;;;4.68;93.59
72055;BME280;59936;51.490;5.436;2024-02-26T01:51:48;99687.00;;;4.67;94.46
72055;BME280;59936;51.490;5.436;2024-02-26T01:54:15;99694.97;;;4.67;94.47
72055;BME280;59936;51.490;5.436;2024-02-26T01:56:42;99697.59;;;4.67;94.66
72055;BME280;59936;51.490;5.436;2024-02-26T01:59:10;99696.94;;;4.65;94.77
72055;BME280;59936;51.490;5.436;2024-02-26T02:01:39;99698.75;;;4.64;95.60
72055;BME280;59936;51.490;5.436;2024-02-26T02:04:11;99695.25;;;4.64;95.37
72055;BME280;59936;51.490;5.436;2024-02-26T02:06:38;99695.56;;;4.61;95.93
72055;BME280;59936;51.490;5.436;2024-02-26T02:09:08;99696.72;;;4.58;96.36
72055;BME280;59936;51.490;5.436;2024-02-26T02:11:35;99702.19;;;4.57;97.65
72055;BME280;59936;51.490;5.436;2024-02-26T02:14:02;99702.53;;;4.54;97.53
72055;BME280;59936;51.490;5.436;2024-02-26T02:16:29;99700.03;;;4.52;98.45
72055;BME280;59936;51.490;5.436;2024-02-26T02:18:56;99701.03;;;4.51;99.28
72055;BME280;59936;51.490;5.436;2024-02-26T02:21:24;99704.66;;;4.50;99.56
72055;BME280;59936;51.490;5.436;2024-02-26T02:23:51;99702.16;;;4.48;100.00
72055;BME280;59936;51.490;5.436;2024-02-26T02:26:18;99693.53;;;4.46;100.00
72055;BME280;59936;51.490;5.436;2024-02-26T02:28:46;99698.31;;;4.43;100.00
72055;BME280;59936;51.490;5.436;2024-02-26T02:31:15;99697.47;;;4.42;100.00
72055;BME280;59936;51.490;5.436;2024-02-26T02:33:42;99701.28;;;4.40;100.00
72055;BME280;59936;51.490;5.436;2024-02-26T02:36:10;99700.75;;;4.36;100.00
72055;BME280;59936;51.490;5.436;2024-02-26T02:38:37;99699.22;;;4.34;100.00
72055;BME280;59936;51.490;5.436;2024-02-26T02:41:04;99702.22;;;4.31;100.00
72055;BME280;59936;51.490;5.436;2024-02-26T02:43:31;99713.00;;;4.29;100.00
72055;BME280;59936;51.490;5.436;2024-02-26T02:45:58;99702.69;;;4.26;100.00
72055;BME280;59936;51.490;5.436;2024-02-26T02:48:25;99706.31;;;4.25;100.00
72055;BME280;59936;51.490;5.436;2024-02-26T02:50:52;99713.59;;;4.23;100.00
72055;BME280;59936;51.490;5.436;2024-02-26T02:53:19;99712.91;;;4.21;100.00
72055;BME280;59936;51.490;5.436;2024-02-26T02:55:46;99704.13;;;4.21;100.00
72055;BME280;59936;51.490;5.436;2024-02-26T02:58:12;99709.59;;;4.19;100.00
72055;BME280;59936;51.490;5.436;2024-02-26T03:00:39;99711.41;;;4.19;100.00
72055;BME280;59936;51.490;5.436;2024-02-26T03:03:06;99709.59;;;4.19;100.00
72055;BME280;59936;51.490;5.436;2024-02-26T03:05:33;99712.41;;;4.18;100.00
72055;BME280;59936;51.490;5.436;2024-02-26T03:08:00;99704.75;;;4.14;100.00
72055;BME280;59936;51.490;5.436;2024-02-26T03:10:27;99710.88;;;4.15;100.00
72055;BME280;59936;51.490;5.436;2024-02-26T03:12:54;99716.19;;;4.15;100.00
72055;BME280;59936;51.490;5.436;2024-02-26T03:15:20;99716.19;;;4.15;100.00
72055;BME280;59936;51.490;5.436;2024-02-26T03:17:47;99716.66;;;4.10;100.00
72055;BME280;59936;51.490;5.436;2024-02-26T03:20:14;99713.34;;;4.08;100.00
72055;BME280;59936;51.490;5.436;2024-02-26T03:22:41;99710.69;;;4.08;100.00
72055;BME280;59936;51.490;5.436;2024-02-26T03:25:08;99709.84;;;4.08;100.00
72055;BME280;59936;51.490;5.436;2024-02-26T03:27:35;99716.81;;;4.09;100.00
72055;BME280;59936;51.490;5.436;2024-02-26T03:30:02;99710.84;;;4.07;100.00
72055;BME280;59936;51.490;5.436;2024-02-26T03:32:29;99718.78;;;4.07;100.00
72055;BME280;59936;51.490;5.436;2024-02-26T03:34:56;99717.13;;;4.06;100.00
72055;BME280;59936;51.490;5.436;2024-02-26T03:37:23;99719.09;;;4.04;100.00
72055;BME280;59936;51.490;5.436;2024-02-26T03:39:50;99719.09;;;4.04;100.00
72055;BME280;59936;51.490;5.436;2024-02-26T03:42:17;99708.66;;;4.02;100.00
72055;BME280;59936;51.490;5.436;2024-02-26T03:44:44;99706.81;;;4.03;100.00
72055;BME280;59936;51.490;5.436;2024-02-26T03:47:10;99708.50;;;4.04;100.00
72055;BME280;59936;51.490;5.436;2024-02-26T03:49:37;99712.81;;;4.05;100.00
72055;BME280;59936;51.490;5.436;2024-02-26T03:52:04;99712.97;;;4.03;100.00
72055;BME280;59936;51.490;5.436;2024-02-26T03:54:31;99715.75;;;4.02;100.00
72055;BME280;59936;51.490;5.436;2024-02-26T03:56:58;99711.28;;;4.02;100.00
72055;BME280;59936;51.490;5.436;2024-02-26T03:59:25;99705.16;;;4.02;100.00
72055;BME280;59936;51.490;5.436;2024-02-26T04:01:52;99714.09;;;4.01;100.00
72055;BME280;59936;51.490;5.436;2024-02-26T04:04:19;99713.41;;;3.99;100.00
72055;BME280;59936;51.490;5.436;2024-02-26T04:06:46;99717.72;;;4.00;100.00
72055;BME280;59936;51.490;5.436;2024-02-26T04:09:16;99715.75;;;4.02;100.00
72055;BME280;59936;51.490;5.436;2024-02-26T04:11:43;99715.75;;;4.02;100.00
72055;BME280;59936;51.490;5.436;2024-02-26T04:14:10;99710.59;;;4.00;100.00
72055;BME280;59936;51.490;5.436;2024-02-26T04:16:37;99708.66;;;4.02;100.00
72055;BME280;59936;51.490;5.436;2024-02-26T04:19:04;99717.59;;;4.01;100.00
72055;BME280;59936;51.490;5.436;2024-02-26T04:21:30;99718.25;;;4.03;100.00
72055;BME280;59936;51.490;5.436;2024-02-26T04:23:57;99719.09;;;4.04;100.00
72055;BME280;59936;51.490;5.436;2024-02-26T04:26:24;99728.03;;;4.03;100.00
72055;BME280;59936;51.490;5.436;2024-02-26T04:28:51;99722.88;;;4.01;100.00
72055;BME280;59936;51.490;5.436;2024-02-26T04:31:18;99726.91;;;4.05;100.00
72055;BME280;59936;51.490;5.436;2024-02-26T04:33:45;99719.09;;;4.04;100.00
72055;BME280;59936;51.490;5.436;2024-02-26T04:36:15;99725.91;;;4.06;100.00
72055;BME280;59936;51.490;5.436;2024-02-26T04:38:45;99734.19;;;4.03;100.00
72055;BME280;59936;51.490;5.436;2024-02-26T04:41:12;99739.34;;;4.05;100.00
72055;BME280;59936;51.490;5.436;2024-02-26T04:43:39;99746.31;;;4.06;100.00
72055;BME280;59936;51.490;5.436;2024-02-26T04:46:09;99739.19;;;4.06;100.00
72055;BME280;59936;51.490;5.436;2024-02-26T04:48:36;99748.97;;;4.06;100.00
72055;BME280;59936;51.490;5.436;2024-02-26T04:51:04;99741.00;;;4.06;100.00
72055;BME280;59936;51.490;5.436;2024-02-26T04:53:31;99747.13;;;4.06;100.00
72055;BME280;59936;51.490;5.436;2024-02-26T04:55:58;99749.78;;;4.06;100.00
72055;BME280;59936;51.490;5.436;2024-02-26T04:58:25;99753.28;;;4.07;100.00
72055;BME280;59936;51.490;5.436;2024-02-26T05:00:51;99749.94;;;4.05;100.00
72055;BME280;59936;51.490;5.436;2024-02-26T05:03:18;99749.94;;;4.05;100.00
72055;BME280;59936;51.490;5.436;2024-02-26T05:05:45;99743.66;;;4.06;100.00
72055;BME280;59936;51.490;5.436;2024-02-26T05:08:12;99746.31;;;4.06;100.00
72055;BME280;59936;51.490;5.436;2024-02-26T05:10:39;99740.16;;;4.05;100.00
72055;BME280;59936;51.490;5.436;2024-02-26T05:13:07;99744.50;;;4.06;100.00
72055;BME280;59936;51.490;5.436;2024-02-26T05:15:34;99736.00;;;4.03;100.00
72055;BME280;59936;51.490;5.436;2024-02-26T05:18:02;99738.81;;;4.01;100.00
72055;BME280;59936;51.490;5.436;2024-02-26T05:20:29;99748.56;;;4.01;100.00
72055;BME280;59936;51.490;5.436;2024-02-26T05:22:56;99746.75;;;4.01;100.00
72055;BME280;59936;51.490;5.436;2024-02-26T05:25:23;99755.41;;;4.03;100.00
72055;BME280;59936;51.490;5.436;2024-02-26T05:27:50;99758.19;;;4.02;100.00
72055;BME280;59936;51.490;5.436;2024-02-26T05:30:16;99758.19;;;4.02;100.00
72055;BME280;59936;51.490;5.436;2024-02-26T05:32:43;99757.22;;;4.03;100.00
72055;BME280;59936;51.490;5.436;2024-02-26T05:35:10;99763.34;;;4.03;100.00
72055;BME280;59936;51.490;5.436;2024-02-26T05:37:37;99769.34;;;4.05;100.00
72055;BME280;59936;51.490;5.436;2024-02-26T05:40:05;99760.69;;;4.03;100.00
72055;BME280;59936;51.490;5.436;2024-02-26T05:42:32;99754.56;;;4.03;100.00
72055;BME280;59936;51.490;5.436;2024-02-26T05:44:59;99766.84;;;4.04;100.00
72055;BME280;59936;51.490;5.436;2024-02-26T05:47:26;99769.34;;;4.05;100.00
72055;BME280;59936;51.490;5.436;2024-02-26T05:49:53;99779.13;;;4.05;100.00
72055;BME280;59936;51.490;5.436;2024-02-26T05:52:20;99769.50;;;4.04;100.00
72055;BME280;59936;51.490;5.436;2024-02-26T05:54:47;99783.06;;;4.01;100.00
72055;BME280;59936;51.490;5.436;2024-02-26T05:57:13;99791.00;;;4.01;100.00
72055;BME280;59936;51.490;5.436;2024-02-26T05:59:40;99789.03;;;4.03;100.00
72055;BME280;59936;51.490;5.436;2024-02-26T06:02:07;99789.19;;;4.01;100.00
72055;BME280;59936;51.490;5.436;2024-02-26T06:04:34;99803.44;;;4.00;100.00
72055;BME280;59936;51.490;5.436;2024-02-26T06:07:01;99803.44;;;4.00;100.00
72055;BME280;59936;51.490;5.436;2024-02-26T06:09:28;99805.94;;;4.02;100.00
72055;BME280;59936;51.490;5.436;2024-02-26T06:11:55;99819.19;;;4.02;100.00
72055;BME280;59936;51.490;5.436;2024-02-26T06:14:21;99812.09;;;4.02;100.00
72055;BME280;59936;51.490;5.436;2024-02-26T06:16:48;99808.97;;;4.07;100.00
72055;BME280;59936;51.490;5.436;2024-02-26T06:19:15;99809.72;;;3.99;100.00
72055;BME280;59936;51.490;5.436;2024-02-26T06:21:42;99810.56;;;4.00;100.00
72055;BME280;59936;51.490;5.436;2024-02-26T06:24:09;99816.00;;;3.98;100.00
72055;BME280;59936;51.490;5.436;2024-02-26T06:26:35;99825.78;;;3.98;100.00
72055;BME280;59936;51.490;5.436;2024-02-26T06:29:02;99819.66;;;3.97;100.00
72055;BME280;59936;51.490;5.436;2024-02-26T06:31:29;99830.25;;;3.97;100.00
72055;BME280;59936;51.490;5.436;2024-02-26T06:33:56;99831.38;;;3.95;100.00
72055;BME280;59936;51.490;5.436;2024-02-26T06:36:23;99849.81;;;3.96;100.00
72055;BME280;59936;51.490;5.436;2024-02-26T06:38:49;99849.81;;;3.96;100.00
72055;BME280;59936;51.490;5.436;2024-02-26T06:41:16;99841.16;;;3.94;100.00
72055;BME280;59936;51.490;5.436;2024-02-26T06:43:43;99853.59;;;3.94;100.00
72055;BME280;59936;51.490;5.436;2024-02-26T06:46:10;99850.94;;;3.94;100.00
72055;BME280;59936;51.490;5.436;2024-02-26T06:48:37;99847.59;;;3.92;100.00
72055;BME280;59936;51.490;5.436;2024-02-26T06:51:03;99844.13;;;3.91;100.00
72055;BME280;59936;51.490;5.436;2024-02-26T06:53:30;99849.59;;;3.90;100.00
72055;BME280;59936;51.490;5.436;2024-02-26T06:55:57;99843.28;;;3.91;100.00
72055;BME280;59936;51.490;5.436;2024-02-26T06:58:24;99855.88;;;3.89;100.00
72055;BME280;59936;51.490;5.436;2024-02-26T07:00:51;99858.81;;;3.86;100.00
72055;BME280;59936;51.490;5.436;2024-02-26T07:03:18;99859.81;;;3.85;100.00
72055;BME280;59936;51.490;5.436;2024-02-26T07:05:45;99861.47;;;3.86;100.00
72055;BME280;59936;51.490;5.436;2024-02-26T07:08:11;99865.94;;;3.85;100.00
72055;BME280;59936;51.490;5.436;2024-02-26T07:10:38;99871.09;;;3.87;100.00
72055;BME280;59936;51.490;5.436;2024-02-26T07:13:05;99872.09;;;3.86;100.00
72055;BME280;59936;51.490;5.436;2024-02-26T07:15:32;99875.72;;;3.85;100.00
72055;BME280;59936;51.490;5.436;2024-02-26T07:17:59;99880.03;;;3.86;100.00
72055;BME280;59936;51.490;5.436;2024-02-26T07:20:26;99887.00;;;3.87;100.00
72055;BME280;59936;51.490;5.436;2024-02-26T07:22:53;99888.69;;;3.88;100.00
72055;BME280;59936;51.490;5.436;2024-02-26T07:25:19;99893.16;;;3.87;100.00
72055;BME280;59936;51.490;5.436;2024-02-26T07:27:46;99901.41;;;3.84;100.00
72055;BME280;59936;51.490;5.436;2024-02-26T07:30:13;99908.38;;;3.85;100.00
72055;BME280;59936;51.490;5.436;2024-02-26T07:32:40;99912.84;;;3.85;100.00
72055;BME280;59936;51.490;5.436;2024-02-26T07:35:07;99905.56;;;3.87;100.00
72055;BME280;59936;51.490;5.436;2024-02-26T07:37:34;99907.25;;;3.88;100.00
72055;BME280;59936;51.490;5.436;2024-02-26T07:40:01;99919.06;;;3.93;100.00
72055;BME280;59936;51.490;5.436;2024-02-26T07:42:28;99928.81;;;3.93;100.00
72055;BME280;59936;51.490;5.436;2024-02-26T07:44:55;99927.16;;;3.92;100.00
72055;BME280;59936;51.490;5.436;2024-02-26T07:47:22;99923.22;;;3.96;100.00
72055;BME280;59936;51.490;5.436;2024-02-26T07:49:49;99937.75;;;3.92;100.00
72055;BME280;59936;51.490;5.436;2024-02-26T07:52:15;99934.28;;;3.91;100.00
72055;BME280;59936;51.490;5.436;2024-02-26T07:54:42;99932.59;;;3.90;100.00
72055;BME280;59936;51.490;5.436;2024-02-26T07:57:09;99932.16;;;3.95;100.00
72055;BME280;59936;51.490;5.436;2024-02-26T07:59:36;99943.06;;;3.92;100.00
72055;BME280;59936;51.490;5.436;2024-02-26T08:02:03;99941.25;;;3.92;100.00
72055;BME280;59936;51.490;5.436;2024-02-26T08:04:30;99946.13;;;3.97;100.00
72055;BME280;59936;51.490;5.436;2024-02-26T08:06:57;99953.09;;;3.98;100.00
72055;BME280;59936;51.490;5.436;2024-02-26T08:09:24;99962.03;;;3.97;100.00
72055;BME280;59936;51.490;5.436;2024-02-26T08:11:51;99960.22;;;3.97;100.00
72055;BME280;59936;51.490;5.436;2024-02-26T08:14:18;99966.06;;;4.01;100.00
72055;BME280;59936;51.490;5.436;2024-02-26T08:16:45;99961.75;;;4.00;100.00
72055;BME280;59936;51.490;5.436;2024-02-26T08:19:12;99967.31;;;4.06;100.00
72055;BME280;59936;51.490;5.436;2024-02-26T08:21:39;99972.59;;;4.06;100.00
72055;BME280;59936;51.490;5.436;2024-02-26T08:24:05;99967.84;;;4.10;100.00
72055;BME280;59936;51.490;5.436;2024-02-26T08:26:32;99972.16;;;4.11;100.00
72055;BME280;59936;51.490;5.436;2024-02-26T08:28:59;99980.41;;;4.08;100.00
72055;BME280;59936;51.490;5.436;2024-02-26T08:31:26;99988.31;;;4.18;100.00
72055;BME280;59936;51.490;5.436;2024-02-26T08:33:53;99987.91;;;4.12;100.00
72055;BME280;59936;51.490;5.436;2024-02-26T08:36:20;99995.72;;;4.14;100.00
72055;BME280;59936;51.490;5.436;2024-02-26T08:38:47;100000.59;;;4.19;100.00
72055;BME280;59936;51.490;5.436;2024-02-26T08:41:13;99995.13;;;4.20;100.00
72055;BME280;59936;51.490;5.436;2024-02-26T08:43:40;100002.41;;;4.18;100.00
72055;BME280;59936;51.490;5.436;2024-02-26T08:46:12;100003.81;;;4.12;100.00
72055;BME280;59936;51.490;5.436;2024-02-26T08:48:39;100012.19;;;4.18;100.00
72055;BME280;59936;51.490;5.436;2024-02-26T08:51:07;100003.81;;;4.12;100.00
72055;BME280;59936;51.490;5.436;2024-02-26T08:53:37;100010.13;;;4.11;100.00
72055;BME280;59936;51.490;5.436;2024-02-26T08:56:05;100012.47;;;4.14;100.00
72055;BME280;59936;51.490;5.436;2024-02-26T08:58:32;100006.88;;;4.18;100.00
72055;BME280;59936;51.490;5.436;2024-02-26T09:00:59;100015.69;;;4.18;100.00
72055;BME280;59936;51.490;5.436;2024-02-26T09:03:25;100023.91;;;4.15;100.00
72055;BME280;59936;51.490;5.436;2024-02-26T09:05:52;100028.09;;;4.18;100.00
72055;BME280;59936;51.490;5.436;2024-02-26T09:08:19;100020.28;;;4.16;100.00
72055;BME280;59936;51.490;5.436;2024-02-26T09:10:46;100034.25;;;4.18;100.00
72055;BME280;59936;51.490;5.436;2024-02-26T09:13:13;100044.56;;;4.21;100.00
72055;BME280;59936;51.490;5.436;2024-02-26T09:15:39;100033.56;;;4.16;100.00
72055;BME280;59936;51.490;5.436;2024-02-26T09:18:06;100042.59;;;4.23;100.00
72055;BME280;59936;51.490;5.436;2024-02-26T09:20:33;100045.00;;;4.17;100.00
72055;BME280;59936;51.490;5.436;2024-02-26T09:23:00;100043.34;;;4.16;100.00
72055;BME280;59936;51.490;5.436;2024-02-26T09:25:27;100050.16;;;4.18;100.00
72055;BME280;59936;51.490;5.436;2024-02-26T09:27:53;100058.66;;;4.22;100.00
72055;BME280;59936;51.490;5.436;2024-02-26T09:30:20;100061.31;;;4.22;100.00
72055;BME280;59936;51.490;5.436;2024-02-26T09:32:47;100057.97;;;4.20;100.00
72055;BME280;59936;51.490;5.436;2024-02-26T09:35:14;100058.13;;;4.18;100.00
72055;BME280;59936;51.490;5.436;2024-02-26T09:37:41;100064.69;;;4.14;100.00
72055;BME280;59936;51.490;5.436;2024-02-26T09:40:08;100072.22;;;4.19;100.00
72055;BME280;59936;51.490;5.436;2024-02-26T09:42:36;100065.09;;;4.19;100.00
72055;BME280;59936;51.490;5.436;2024-02-26T09:45:11;100076.97;;;4.15;100.00
72055;BME280;59936;51.490;5.436;2024-02-26T09:47:44;100076.16;;;4.14;100.00
72055;BME280;59936;51.490;5.436;2024-02-26T09:50:14;100084.25;;;4.13;100.00
72055;BME280;59936;51.490;5.436;2024-02-26T09:52:43;100092.63;;;4.18;100.00
72055;BME280;59936;51.490;5.436;2024-02-26T09:55:10;100089.97;;;4.18;100.00
72055;BME280;59936;51.490;5.436;2024-02-26T09:57:37;100096.81;;;4.21;100.00
72055;BME280;59936;51.490;5.436;2024-02-26T10:00:17;100092.31;;;4.21;100.00
72055;BME280;59936;51.490;5.436;2024-02-26T10:02:46;100093.84;;;4.24;100.00
72055;BME280;59936;51.490;5.436;2024-02-26T10:05:18;100093.84;;;4.24;100.00
72055;BME280;59936;51.490;5.436;2024-02-26T10:07:45;100103.06;;;4.29;100.00
72055;BME280;59936;51.490;5.436;2024-02-26T10:10:17;100123.16;;;4.32;100.00
72055;BME280;59936;51.490;5.436;2024-02-26T10:12:44;100126.94;;;4.29;100.00
72055;BME280;59936;51.490;5.436;2024-02-26T10:15:11;100126.94;;;4.29;100.00
72055;BME280;59936;51.490;5.436;2024-02-26T10:17:38;100119.69;;;4.31;100.00
72055;BME280;59936;51.490;5.436;2024-02-26T10:20:17;100131.50;;;4.37;100.00
72055;BME280;59936;51.490;5.436;2024-02-26T10:22:44;100128.72;;;4.38;100.00
72055;BME280;59936;51.490;5.436;2024-02-26T10:25:11;100139.75;;;4.34;100.00
72055;BME280;59936;51.490;5.436;2024-02-26T10:27:41;100148.19;;;4.29;100.00
72055;BME280;59936;51.490;5.436;2024-02-26T10:30:21;100147.88;;;4.32;100.00
72055;BME280;59936;51.490;5.436;2024-02-26T10:32:49;100150.22;;;4.35;100.00
72055;BME280;59936;51.490;5.436;2024-02-26T10:35:17;100156.63;;;4.42;100.00
72055;BME280;59936;51.490;5.436;2024-02-26T10:37:46;100159.16;;;4.44;100.00
72055;BME280;59936;51.490;5.436;2024-02-26T10:40:14;100157.47;;;4.43;100.00
72055;BME280;59936;51.490;5.436;2024-02-26T10:42:42;100166.00;;;4.37;100.00
72055;BME280;59936;51.490;5.436;2024-02-26T10:45:10;100168.38;;;4.40;100.00
72055;BME280;59936;51.490;5.436;2024-02-26T10:47:37;100174.66;;;4.39;100.00
72055;BME280;59936;51.490;5.436;2024-02-26T10:50:06;100181.34;;;4.43;100.00
72055;BME280;59936;51.490;5.436;2024-02-26T10:52:35;100195.47;;;4.43;100.00
72055;BME280;59936;51.490;5.436;2024-02-26T10:55:04;100195.59;;;4.42;100.00
72055;BME280;59936;51.490;5.436;2024-02-26T10:57:34;100203.44;;;4.43;100.00
72055;BME280;59936;51.490;5.436;2024-02-26T11:00:06;100212.81;;;4.38;100.00
72055;BME280;59936;51.490;5.436;2024-02-26T11:02:36;100208.47;;;4.37;100.00
72055;BME280;59936;51.490;5.436;2024-02-26T11:05:05;100213.22;;;4.33;100.00
72055;BME280;59936;51.490;5.436;2024-02-26T11:07:36;100211.81;;;4.39;100.00
72055;BME280;59936;51.490;5.436;2024-02-26T11:10:06;100212.50;;;4.41;100.00
72055;BME280;59936;51.490;5.436;2024-02-26T11:12:35;100207.34;;;4.39;100.00
72055;BME280;59936;51.490;5.436;2024-02-26T11:15:05;100222.00;;;4.43;100.00
72055;BME280;59936;51.490;5.436;2024-02-26T11:17:33;100227.88;;;4.47;100.00
72055;BME280;59936;51.490;5.436;2024-02-26T11:20:04;100225.38;;;4.45;100.00
72055;BME280;59936;51.490;5.436;2024-02-26T11:22:36;100225.66;;;4.42;100.00
72055;BME280;59936;51.490;5.436;2024-02-26T11:25:03;100234.16;;;4.46;100.00
72055;BME280;59936;51.490;5.436;2024-02-26T11:27:40;100228.72;;;4.47;100.00
72055;BME280;59936;51.490;5.436;2024-02-26T11:30:17;100239.19;;;4.49;100.00
72055;BME280;59936;51.490;5.436;2024-02-26T11:32:46;100240.59;;;4.43;100.00
72055;BME280;59936;51.490;5.436;2024-02-26T11:35:14;100232.63;;;4.43;100.00
72055;BME280;59936;51.490;5.436;2024-02-26T11:37:54;100232.50;;;4.45;100.00
72055;BME280;59936;51.490;5.436;2024-02-26T11:40:25;100232.06;;;4.40;100.00
72055;BME280;59936;51.490;5.436;2024-02-26T11:42:54;100230.13;;;4.42;100.00
72055;BME280;59936;51.490;5.436;2024-02-26T11:45:47;100229.56;;;4.38;100.00
72055;BME280;59936;51.490;5.436;2024-02-26T11:48:19;100238.50;;;4.37;100.00
72055;BME280;59936;51.490;5.436;2024-02-26T11:50:52;100238.91;;;4.42;100.00
72055;BME280;59936;51.490;5.436;2024-02-26T11:53:25;100243.94;;;4.45;100.00
72055;BME280;59936;51.490;5.436;2024-02-26T11:58:44;100238.59;;;4.55;100.00
72055;BME280;59936;51.490;5.436;2024-02-26T12:06:57;100247.25;;;4.57;100.00
72055;BME280;59936;51.490;5.436;2024-02-26T12:12:08;100252.56;;;4.57;100.00
72055;BME280;59936;51.490;5.436;2024-02-26T12:14:53;100261.50;;;4.56;100.00
72055;BME280;59936;51.490;5.436;2024-02-26T12:17:25;100252.88;;;4.54;100.00
72055;BME280;59936;51.490;5.436;2024-02-26T12:19:52;100274.25;;;4.53;100.00
72055;BME280;59936;51.490;5.436;2024-02-26T12:22:19;100271.28;;;4.56;100.00
72055;BME280;59936;51.490;5.436;2024-02-26T12:24:46;100276.59;;;4.56;100.00
72055;BME280;59936;51.490;5.436;2024-02-26T12:27:13;100274.94;;;4.55;100.00
72055;BME280;59936;51.490;5.436;2024-02-26T12:29:39;100275.75;;;4.55;100.00
72055;BME280;59936;51.490;5.436;2024-02-26T12:32:06;100287.22;;;4.56;100.00
72055;BME280;59936;51.490;5.436;2024-02-26T12:34:33;100289.88;;;4.56;100.00
72055;BME280;59936;51.490;5.436;2024-02-26T12:37:01;100295.03;;;4.57;100.00
72055;BME280;59936;51.490;5.436;2024-02-26T12:39:28;100293.09;;;4.59;100.00
72055;BME280;59936;51.490;5.436;2024-02-26T12:41:55;100301.88;;;4.60;100.00
72055;BME280;59936;51.490;5.436;2024-02-26T12:44:26;100300.63;;;4.64;100.00
72055;BME280;59936;51.490;5.436;2024-02-26T12:47:03;100313.19;;;4.62;100.00
72055;BME280;59936;51.490;5.436;2024-02-26T12:49:31;100310.69;;;4.70;100.00
72055;BME280;59936;51.490;5.436;2024-02-26T12:51:58;100303.97;;;4.56;100.00
72055;BME280;59936;51.490;5.436;2024-02-26T12:54:25;100315.19;;;4.50;100.00
72055;BME280;59936;51.490;5.436;2024-02-26T12:56:56;100323.03;;;4.52;100.00
72055;BME280;59936;51.490;5.436;2024-02-26T12:59:26;100319.53;;;4.51;100.00
72055;BME280;59936;51.490;5.436;2024-02-26T13:01:54;100330.00;;;4.53;100.00
72055;BME280;59936;51.490;5.436;2024-02-26T13:04:21;100328.19;;;4.53;100.00
72055;BME280;59936;51.490;5.436;2024-02-26T13:06:48;100328.72;;;4.57;100.00
72055;BME280;59936;51.490;5.436;2024-02-26T13:09:15;100337.78;;;4.64;100.00
72055;BME280;59936;51.490;5.436;2024-02-26T13:11:42;100340.59;;;4.62;100.00
72055;BME280;59936;51.490;5.436;2024-02-26T13:14:19;100339.19;;;4.58;100.00